Skip Navigation Links
NOAA logo - Click to go to the NOAA homepage
NOAA's National Weather Service
Alaska Aviation Weather Unit
  NWS logo - Click to go to the NWS homepage
Left Navbar Graphic     01 AKDT = 09 GMT

   
NOAA is celebrating 200 years of science, service, and stewardship. Visit the NOAA 200th celebration Web site to learn more.
USA.gov is the U.S. Government's official Web portal to all Federal, state and local government Web resources and services.
Facebook
NWS on Facebook

Important Change Regarding the AAWU Web Presence

 

Over the last several months, the AAWU has been working to navigate its webpages to a nationally supported server. Security, as well as other needs, have necessitated the change.  We have been given an extension for the site changeover while we diligently work at addressing feedback received. As of July 14, 2017, aawu.arh.noaa.gov will be discontinued. The new AAWU web address is weather.gov/aawu. It is now live and will run in-parallel with the old site until it is discontinued on July 14, 2017. Please continue to send any feedback or questions regarding the new webpages to nws.ar.aawu.webauthors@noaa.gov.  Thank you for your patience during this time of transition.
AAWU Home :: Display TAF Add Bookmark
TAF PAGY 190524Z 1906/2006  20018G25KT P6SM VCSH OVC060
     FM191000 20016G23KT 6SM -SHRA FEW004 BKN035 OVC050
     FM192100 21014KT 6SM -SHRA BKN015 OVC025
      AMD LTD TO CLD VIS AND WIND=

7455
FTAK31 PAJN 190524
TAFASI
TAF
METAR PAGY 190353Z AUTO 20018G25KT 10SM OVC070 16/09 A2988 RMK AO2 PK
     WND 21026/0307 RAB13E24 SLP119 P0000 T01560089 TSNO=

METAR PAGY 190453Z AUTO 20015G21KT 10SM BKN070 OVC080 15/09 A2990 RMK
     AO2 SLP125 T01500089 TSNO=

METAR PAGY 190553Z AUTO 20017KT 10SM BKN060 OVC080 15/09 A2990 RMK AO2
     PK WND 19028/0519 SLP126 60000 T01500089 10172 20150 51009
     TSNO=

METAR PAGY 190653Z AUTO 20017G24KT 10SM OVC070 15/09 A2991 RMK AO2
 PK WND 21026/0610 SLP129 T01500089 TSNO=

METAR PAGY 190753Z AUTO 20015KT 10SM FEW070 BKN095 15/09 A2991 RMK AO2
     SLP130 T01500089 TSNO=

METAR PAGY 190853Z AUTO 21016G23KT 10SM SCT050 SCT065 BKN080 15/09 A2992
     RMK AO2 SLP132 T01500089 401720117 52006 TSNO=


NOAA's National Weather Service
Alaska Aviation Weather Unit
6930 Sand Lake Road
Anchorage, AK 99502-1845
Disclaimer
Credits
Glossary
Privacy Policy
About Us
Career Opportunities
Contact AAWU Internet Services Site last modified: April, 17th 2012